createdAt,value
2017-12-04T00:04:42.638Z,100016.94
2017-12-04T00:10:46.275Z,100011.38
2017-12-04T00:16:49.877Z,100015.02
2017-12-04T00:22:53.732Z,100011.99
2017-12-04T00:28:58.232Z,100024.25
2017-12-04T00:35:01.787Z,100025.19
2017-12-04T00:41:05.423Z,100028.11
2017-12-04T00:47:09.009Z,100021.22
2017-12-04T00:53:13.314Z,100021.50
2017-12-04T00:59:16.844Z,100020.88
2017-12-04T01:05:20.616Z,100019.58
2017-12-04T01:11:24.178Z,100008.38
2017-12-04T01:17:27.732Z,100019.03
2017-12-04T01:23:31.335Z,100011.38
2017-12-04T01:29:34.951Z,100037.27
2017-12-04T01:35:38.613Z,100048.05
2017-12-04T01:41:42.149Z,100033.33
2017-12-04T01:47:46.552Z,100038.17
2017-12-04T01:53:50.130Z,100037.44
2017-12-04T01:59:54.408Z,100028.06
2017-12-04T02:05:58.274Z,100018.07
2017-12-04T02:12:01.878Z,100015.53
2017-12-04T02:18:05.416Z,100021.70
2017-12-04T02:24:09.722Z,100021.55
2017-12-04T02:30:13.233Z,100018.67
2017-12-04T02:36:17.539Z,100015.17
2017-12-04T02:42:21.164Z,100010.93
2017-12-04T02:48:25.584Z,100010.06
2017-12-04T02:54:29.462Z,100007.48
2017-12-04T03:00:33.108Z,100015.05
2017-12-04T03:06:37.627Z,100023.11
2017-12-04T03:12:41.991Z,100019.02
2017-12-04T03:18:45.588Z,100020.67
2017-12-04T03:24:49.130Z,100019.81
2017-12-04T03:30:52.826Z,100011.42
2017-12-04T03:36:56.373Z,100007.64
2017-12-04T03:42:59.953Z,100009.25
2017-12-04T03:49:03.519Z,100002.58
2017-12-04T03:55:07.235Z,100000.95
2017-12-04T04:01:10.802Z,100007.20
2017-12-04T04:07:14.582Z,100002.58
2017-12-04T04:13:18.159Z,100003.41
2017-12-04T04:19:21.750Z,100004.25
2017-12-04T04:25:26.219Z,99997.47
2017-12-04T04:31:30.522Z,100003.55
2017-12-04T04:37:34.092Z,100010.63
2017-12-04T04:43:37.741Z,100024.80
2017-12-04T04:49:42.041Z,100016.08
2017-12-04T04:55:45.588Z,100004.43
2017-12-04T05:01:49.137Z,100006.16
2017-12-04T05:07:52.870Z,99998.08
2017-12-04T05:13:56.413Z,100004.03
2017-12-04T05:19:59.952Z,100008.00
2017-12-04T05:26:04.278Z,100007.38
2017-12-04T05:32:07.802Z,100004.73
2017-12-04T05:38:11.401Z,100011.16
2017-12-04T05:44:14.915Z,100011.91
2017-12-04T05:50:18.566Z,100017.36
2017-12-04T05:56:22.289Z,100023.44
2017-12-04T06:02:26.289Z,100034.27
2017-12-04T06:08:29.835Z,100028.59
2017-12-04T06:14:34.355Z,100031.05
2017-12-04T06:20:37.901Z,100033.48
2017-12-04T06:26:41.434Z,100040.91
2017-12-04T06:32:46.734Z,100038.39
2017-12-04T06:38:50.501Z,100049.90
2017-12-04T06:44:54.357Z,100053.75
2017-12-04T06:50:58.047Z,100060.98
2017-12-04T06:57:01.933Z,100063.16
2017-12-04T07:03:05.593Z,100071.92
2017-12-04T07:09:09.248Z,100070.36
2017-12-04T07:15:12.815Z,100080.30
2017-12-04T07:21:17.221Z,100080.30
2017-12-04T07:27:22.332Z,100088.84
2017-12-04T07:33:26.403Z,100094.83
2017-12-04T07:39:30.063Z,100095.59
2017-12-04T07:45:33.611Z,100099.73
2017-12-04T07:51:37.455Z,100101.29
2017-12-04T07:57:41.298Z,100116.08
2017-12-04T08:03:46.010Z,100116.86
2017-12-04T08:09:49.526Z,100124.45
2017-12-04T08:15:53.105Z,100125.37
2017-12-04T08:21:57.406Z,100133.48
2017-12-04T08:28:01.718Z,100139.02
2017-12-04T08:34:06.109Z,100145.59
2017-12-04T08:40:10.426Z,100146.84
2017-12-04T08:46:13.964Z,100152.98
2017-12-04T08:52:17.501Z,100164.47
2017-12-04T08:58:21.841Z,100172.56
2017-12-04T09:04:26.224Z,100180.33
2017-12-04T09:10:29.883Z,100186.33
2017-12-04T09:16:34.198Z,100197.45
2017-12-04T09:22:37.734Z,100197.19
2017-12-04T09:28:42.021Z,100205.72
2017-12-04T09:34:45.776Z,100213.31
2017-12-04T09:40:49.571Z,100225.41
2017-12-04T09:46:53.256Z,100217.94
2017-12-04T09:52:56.872Z,100225.15
2017-12-04T09:59:00.398Z,100232.40
2017-12-04T10:05:04.809Z,100225.00
2017-12-04T10:11:08.377Z,100230.87
2017-12-04T10:17:12.007Z,100234.18
2017-12-04T10:23:15.568Z,100232.85
2017-12-04T10:29:19.128Z,100253.73
2017-12-04T10:35:24.296Z,100254.02
2017-12-04T10:41:27.950Z,100247.30
2017-12-04T10:47:31.495Z,100254.30
2017-12-04T10:53:35.794Z,100259.96
2017-12-04T10:59:39.431Z,100268.23
2017-12-04T11:05:43.045Z,100254.58
2017-12-04T11:11:46.587Z,100253.55
2017-12-04T11:17:50.133Z,100247.58
2017-12-04T11:23:54.083Z,100259.70
2017-12-04T11:29:57.631Z,100265.13
2017-12-04T11:36:01.344Z,100265.13
2017-12-04T11:42:05.647Z,100270.39
2017-12-04T11:48:09.931Z,100272.25
2017-12-04T11:54:13.453Z,100271.61
2017-12-04T12:00:17.049Z,100281.08
2017-12-04T12:06:20.621Z,100271.27
2017-12-04T12:12:24.324Z,100270.28
2017-12-04T12:18:28.802Z,100273.36
2017-12-04T12:24:32.340Z,100272.19
2017-12-04T12:30:35.882Z,100262.38
2017-12-04T12:36:39.414Z,100276.11
2017-12-04T12:42:43.155Z,100281.95
2017-12-04T12:48:46.728Z,100283.19
2017-12-04T12:54:50.515Z,100288.66
2017-12-04T13:00:54.470Z,100293.48
2017-12-04T13:06:58.039Z,100301.13
2017-12-04T13:13:01.596Z,100313.58
2017-12-04T13:19:05.342Z,100316.34
2017-12-04T13:25:08.862Z,100308.28
2017-12-04T13:31:12.374Z,100321.13
2017-12-04T13:37:21.693Z,100330.55
2017-12-04T13:43:26.007Z,100334.80
2017-12-04T13:49:29.541Z,100329.41
2017-12-04T13:55:33.055Z,100310.63
2017-12-04T14:01:36.585Z,100335.00
2017-12-04T14:07:40.105Z,100340.72
2017-12-04T14:13:43.691Z,100354.07
2017-12-04T14:19:47.195Z,100357.02
2017-12-04T14:25:51.473Z,100359.97
2017-12-04T14:31:55.769Z,100363.28
2017-12-04T14:37:59.267Z,100378.02
2017-12-04T14:44:02.769Z,100392.39
2017-12-04T14:50:06.278Z,100386.25
2017-12-04T14:56:09.848Z,100392.06
2017-12-04T15:02:13.370Z,100394.81
2017-12-04T15:08:16.876Z,100403.56
2017-12-04T15:14:20.363Z,100416.30
2017-12-04T15:20:24.719Z,100414.88
2017-12-04T15:26:28.237Z,100425.45
2017-12-04T15:32:32.580Z,100427.36
2017-12-04T15:38:36.148Z,100434.27
2017-12-04T15:44:39.644Z,100431.05
2017-12-04T15:50:43.158Z,100444.39
2017-12-04T15:56:46.794Z,100445.34
2017-12-04T16:02:50.309Z,100456.34
2017-12-04T16:08:54.261Z,100469.89
2017-12-04T16:14:59.373Z,100488.20
2017-12-04T16:21:02.915Z,100495.79
2017-12-04T16:27:07.282Z,100501.41
2017-12-04T16:33:11.560Z,100506.50
2017-12-04T16:39:15.843Z,100518.36
2017-12-04T16:45:19.397Z,100526.77
2017-12-04T16:51:23.101Z,100523.61
2017-12-04T16:57:26.632Z,100540.45
2017-12-04T17:03:30.144Z,100556.52
2017-12-04T17:09:34.502Z,100560.69
2017-12-04T17:15:38.054Z,100560.97
2017-12-04T17:21:43.108Z,100568.70
2017-12-04T17:27:46.655Z,100576.95
2017-12-04T17:33:50.341Z,100580.80
2017-12-04T17:39:54.238Z,100575.23
2017-12-04T17:45:58.007Z,100588.13
2017-12-04T17:52:02.340Z,100595.89
2017-12-04T17:58:05.888Z,100602.27
2017-12-04T18:04:09.484Z,100599.36
2017-12-04T18:10:13.759Z,100604.05
2017-12-04T18:16:18.074Z,100619.91
2017-12-04T18:22:21.846Z,100617.75
2017-12-04T18:28:25.451Z,100616.00
2017-12-04T18:34:29.722Z,100622.08
2017-12-04T18:40:34.025Z,100629.91
2017-12-04T18:46:37.543Z,100627.22
2017-12-04T18:52:41.937Z,100619.73
2017-12-04T18:58:46.223Z,100628.30
2017-12-04T19:04:49.766Z,100635.18
2017-12-04T19:10:53.377Z,100640.36
2017-12-04T19:16:57.136Z,100654.76
2017-12-04T19:23:00.681Z,100667.97
2017-12-04T19:29:04.206Z,100666.71
2017-12-04T19:35:07.730Z,100681.77
2017-12-04T19:41:11.998Z,100688.56
2017-12-04T19:47:16.311Z,100678.14
2017-12-04T19:53:19.856Z,100684.94
2017-12-04T19:59:23.487Z,100683.70
2017-12-04T20:05:27.741Z,100682.80
2017-12-04T20:11:31.280Z,100680.25
2017-12-04T20:17:34.917Z,100682.59
2017-12-04T20:23:38.439Z,100680.04
2017-12-04T20:29:41.964Z,100702.34
2017-12-04T20:35:45.512Z,100698.95
2017-12-04T20:41:49.027Z,100697.00
2017-12-04T20:47:52.560Z,100706.95
2017-12-04T20:53:56.408Z,100703.48
2017-12-04T20:59:59.931Z,100708.06
2017-12-04T21:06:03.443Z,100709.50
2017-12-04T21:12:06.987Z,100712.99
2017-12-04T21:18:10.543Z,100715.80
2017-12-04T21:24:14.843Z,100710.63
2017-12-04T21:30:18.354Z,100718.50
2017-12-04T21:36:22.892Z,100714.81
2017-12-04T21:42:26.452Z,100719.02
2017-12-04T21:48:30.160Z,100713.12
2017-12-04T21:54:33.702Z,100721.36
2017-12-04T22:00:38.003Z,100712.26
2017-12-04T22:06:41.506Z,100723.78
2017-12-04T22:12:45.155Z,100721.09
2017-12-04T22:18:48.900Z,100725.50
2017-12-04T22:24:52.710Z,100732.14
2017-12-04T22:30:56.991Z,100726.53
2017-12-04T22:37:01.312Z,100730.23
2017-12-04T22:43:04.854Z,100728.59
2017-12-04T22:49:09.162Z,100733.42
2017-12-04T22:55:12.676Z,100732.41
2017-12-04T23:01:16.192Z,100737.39
2017-12-04T23:07:19.694Z,100744.87
2017-12-04T23:13:23.418Z,100745.50
2017-12-04T23:19:27.075Z,100754.19
2017-12-04T23:25:31.768Z,100751.78
2017-12-04T23:31:35.267Z,100746.76
2017-12-04T23:37:38.875Z,100751.54
2017-12-04T23:43:42.456Z,100749.63
2017-12-04T23:49:46.016Z,100755.30
2017-12-04T23:55:49.593Z,100754.55
